createdAt,value
2019-01-25T00:00:09.630Z,92454.72
2019-01-25T00:00:40.111Z,92454.22
2019-01-25T00:01:04.370Z,92454.63
2019-01-25T00:01:27.745Z,92453.72
2019-01-25T00:01:50.810Z,92453.75
2019-01-25T00:02:15.090Z,92454.42
2019-01-25T00:02:37.824Z,92456.80
2019-01-25T00:03:02.292Z,92455.72
2019-01-25T00:03:25.570Z,92454.13
2019-01-25T00:03:48.305Z,92449.58
2019-01-25T00:04:11.430Z,92450.75
2019-01-25T00:04:34.112Z,92453.86
2019-01-25T00:04:56.704Z,92452.95
2019-01-25T00:05:19.510Z,92460.50
2019-01-25T00:05:42.144Z,92456.72
2019-01-25T00:06:04.863Z,92449.58
2019-01-25T00:06:27.585Z,92457.33
2019-01-25T00:06:50.306Z,92457.09
2019-01-25T00:07:13.024Z,92456.02
2019-01-25T00:07:35.739Z,92457.09
2019-01-25T00:07:58.464Z,92462.86
2019-01-25T00:08:21.471Z,92454.72
2019-01-25T00:08:44.291Z,92460.89
2019-01-25T00:09:06.942Z,92462.06
2019-01-25T00:09:29.637Z,92461.06
2019-01-25T00:09:58.610Z,92466.36
2019-01-25T00:10:16.709Z,92460.89
2019-01-25T00:10:39.492Z,92469.03
2019-01-25T00:11:02.126Z,92462.66
2019-01-25T00:11:24.993Z,92460.27
2019-01-25T00:11:47.791Z,92462.48
2019-01-25T00:12:10.590Z,92463.97
2019-01-25T00:12:33.344Z,92462.27
2019-01-25T00:12:56.132Z,92466.15
2019-01-25T00:13:19.030Z,92461.48
2019-01-25T00:13:42.190Z,92463.68
2019-01-25T00:14:04.864Z,92462.89
2019-01-25T00:14:27.570Z,92468.27
2019-01-25T00:14:50.292Z,92472.31
2019-01-25T00:15:12.871Z,92472.73
2019-01-25T00:15:35.589Z,92465.27
2019-01-25T00:15:58.650Z,92469.14
2019-01-25T00:16:21.505Z,92467.38
2019-01-25T00:16:44.251Z,92465.65
2019-01-25T00:17:07.089Z,92463.48
2019-01-25T00:17:30.030Z,92462.27
2019-01-25T00:17:52.772Z,92461.06
2019-01-25T00:18:15.510Z,92460.18
2019-01-25T00:18:38.171Z,92465.65
2019-01-25T00:19:00.742Z,92462.09
2019-01-25T00:19:23.585Z,92459.69
2019-01-25T00:19:46.270Z,92463.36
2019-01-25T00:20:09.113Z,92463.06
2019-01-25T00:20:31.931Z,92463.27
2019-01-25T00:20:55.947Z,92471.61
2019-01-25T00:21:18.783Z,92463.65
2019-01-25T00:21:41.430Z,92470.41
2019-01-25T00:22:04.010Z,92469.32
2019-01-25T00:22:26.710Z,92470.61
2019-01-25T00:22:49.311Z,92466.65
2019-01-25T00:23:12.050Z,92468.55
2019-01-25T00:23:34.673Z,92465.97
2019-01-25T00:23:57.568Z,92469.27
2019-01-25T00:24:20.290Z,92468.17
2019-01-25T00:24:43.151Z,92469.45
2019-01-25T00:25:06.247Z,92470.37
2019-01-25T00:25:29.010Z,92466.70
2019-01-25T00:25:51.812Z,92464.20
2019-01-25T00:26:14.570Z,92467.97
2019-01-25T00:26:37.386Z,92470.76
2019-01-25T00:27:00.211Z,92469.55
2019-01-25T00:27:22.942Z,92464.30
2019-01-25T00:27:45.651Z,92472.73
2019-01-25T00:28:08.350Z,92469.03
2019-01-25T00:28:31.100Z,92474.02
2019-01-25T00:28:53.827Z,92466.67
2019-01-25T00:29:16.934Z,92465.67
2019-01-25T00:29:39.649Z,92466.58
2019-01-25T00:30:02.118Z,92469.09
2019-01-25T00:30:25.025Z,92473.35
2019-01-25T00:30:47.740Z,92467.31
2019-01-25T00:31:10.431Z,92470.28
2019-01-25T00:31:33.193Z,92466.11
2019-01-25T00:31:55.990Z,92469.69
2019-01-25T00:32:18.671Z,92469.59
2019-01-25T00:32:41.344Z,92476.94
2019-01-25T00:33:03.950Z,92469.59
2019-01-25T00:33:26.783Z,92470.67
2019-01-25T00:33:49.485Z,92470.77
2019-01-25T00:34:12.910Z,92474.76
2019-01-25T00:34:35.586Z,92469.50
2019-01-25T00:34:58.230Z,92471.40
2019-01-25T00:35:21.019Z,92468.81
2019-01-25T00:35:43.912Z,92469.89
2019-01-25T00:36:08.050Z,92473.89
2019-01-25T00:36:30.781Z,92468.52
2019-01-25T00:36:53.576Z,92470.29
2019-01-25T00:37:16.223Z,92472.58
2019-01-25T00:37:38.944Z,92475.34
2019-01-25T00:38:01.578Z,92474.46
2019-01-25T00:38:24.229Z,92472.47
2019-01-25T00:38:46.910Z,92480.22
2019-01-25T00:39:09.550Z,92471.06
2019-01-25T00:39:32.226Z,92477.05
2019-01-25T00:39:54.930Z,92482.30
2019-01-25T00:40:17.651Z,92473.86
2019-01-25T00:40:40.212Z,92476.16
2019-01-25T00:41:02.691Z,92477.84
2019-01-25T00:41:25.370Z,92475.45
2019-01-25T00:41:47.969Z,92480.82
2019-01-25T00:42:10.570Z,92478.63
2019-01-25T00:42:33.250Z,92480.70
2019-01-25T00:42:56.030Z,92482.39
2019-01-25T00:43:18.784Z,92475.64
2019-01-25T00:43:41.712Z,92482.02
2019-01-25T00:44:04.510Z,92477.65
2019-01-25T00:44:27.610Z,92488.05
2019-01-25T00:44:50.302Z,92489.14
2019-01-25T00:45:12.950Z,92487.77
2019-01-25T00:45:35.791Z,92479.72
2019-01-25T00:45:58.970Z,92483.68
2019-01-25T00:46:22.091Z,92488.34
2019-01-25T00:46:44.768Z,92485.97
2019-01-25T00:47:07.330Z,92488.64
2019-01-25T00:47:30.149Z,92487.26
2019-01-25T00:47:52.829Z,92481.61
2019-01-25T00:48:16.009Z,92489.05
2019-01-25T00:48:38.667Z,92491.73
2019-01-25T00:49:01.832Z,92487.77
2019-01-25T00:49:24.544Z,92491.05
2019-01-25T00:49:47.310Z,92489.08
2019-01-25T00:50:09.988Z,92487.97
2019-01-25T00:50:32.704Z,92488.44
2019-01-25T00:50:55.370Z,92488.77
2019-01-25T00:51:18.149Z,92489.85
2019-01-25T00:51:40.864Z,92483.30
2019-01-25T00:52:03.390Z,92483.97
2019-01-25T00:52:26.151Z,92485.97
2019-01-25T00:52:48.830Z,92485.27
2019-01-25T00:53:11.531Z,92481.91
2019-01-25T00:53:34.421Z,92487.38
2019-01-25T00:53:57.150Z,92485.08
2019-01-25T00:54:19.829Z,92487.97
2019-01-25T00:54:42.435Z,92484.09
2019-01-25T00:55:05.230Z,92481.61
2019-01-25T00:55:28.059Z,92488.38
2019-01-25T00:55:50.731Z,92487.47
2019-01-25T00:56:13.450Z,92492.84
2019-01-25T00:56:36.170Z,92491.36
2019-01-25T00:56:58.850Z,92495.63
2019-01-25T00:57:21.892Z,92494.92
2019-01-25T00:57:44.470Z,92495.22
2019-01-25T00:58:07.150Z,92496.30
2019-01-25T00:58:30.270Z,92495.72
2019-01-25T00:58:53.091Z,92493.95
2019-01-25T00:59:15.716Z,92494.81
2019-01-25T00:59:38.830Z,92496.83
2019-01-25T01:00:01.410Z,92495.13
2019-01-25T01:00:24.231Z,92500.00
2019-01-25T01:00:47.030Z,92501.27
2019-01-25T01:01:09.891Z,92498.59
2019-01-25T01:01:32.670Z,92499.89
2019-01-25T01:01:55.411Z,92496.62
2019-01-25T01:02:18.230Z,92498.30
2019-01-25T01:02:40.970Z,92496.22
2019-01-25T01:03:03.611Z,92498.48
2019-01-25T01:03:26.391Z,92501.06
2019-01-25T01:03:49.181Z,92501.30
2019-01-25T01:04:11.850Z,92500.09
2019-01-25T01:04:34.670Z,92501.36
2019-01-25T01:04:57.390Z,92509.33
2019-01-25T01:05:20.370Z,92501.48
2019-01-25T01:05:43.102Z,92500.98
2019-01-25T01:06:05.888Z,92502.66
2019-01-25T01:06:28.610Z,92499.20
2019-01-25T01:06:51.810Z,92504.66
2019-01-25T01:07:14.592Z,92506.95
2019-01-25T01:07:37.371Z,92509.22
2019-01-25T01:08:00.065Z,92502.75
2019-01-25T01:08:22.970Z,92509.33
2019-01-25T01:08:45.710Z,92517.79
2019-01-25T01:09:08.425Z,92512.62
2019-01-25T01:09:31.091Z,92511.92
2019-01-25T01:09:53.829Z,92506.86
2019-01-25T01:10:16.750Z,92513.91
2019-01-25T01:10:39.350Z,92508.03
2019-01-25T01:11:01.917Z,92508.83
2019-01-25T01:11:24.590Z,92510.82
2019-01-25T01:11:47.290Z,92512.12
2019-01-25T01:12:10.090Z,92511.34
2019-01-25T01:12:32.690Z,92513.92
2019-01-25T01:12:55.423Z,92515.61
2019-01-25T01:13:18.146Z,92509.75
2019-01-25T01:13:41.130Z,92514.41
2019-01-25T01:14:03.670Z,92510.63
2019-01-25T01:14:26.349Z,92510.16
2019-01-25T01:14:49.090Z,92512.93
2019-01-25T01:15:12.270Z,92510.14
2019-01-25T01:15:34.991Z,92507.37
2019-01-25T01:15:57.687Z,92512.12
2019-01-25T01:16:20.370Z,92513.70
2019-01-25T01:16:43.013Z,92509.83
2019-01-25T01:17:05.663Z,92515.02
2019-01-25T01:17:28.384Z,92507.36
2019-01-25T01:17:51.050Z,92502.99
2019-01-25T01:18:14.290Z,92508.66
2019-01-25T01:18:36.952Z,92507.57
2019-01-25T01:18:59.570Z,92507.25
2019-01-25T01:19:22.512Z,92514.99
2019-01-25T01:19:45.550Z,92507.94
2019-01-25T01:20:08.110Z,92510.82
2019-01-25T01:20:30.731Z,92516.58
2019-01-25T01:20:53.411Z,92506.66
2019-01-25T01:21:16.131Z,92514.91
2019-01-25T01:21:38.831Z,92509.94
2019-01-25T01:22:01.590Z,92509.82
2019-01-25T01:22:24.171Z,92508.53
2019-01-25T01:22:46.784Z,92506.15
2019-01-25T01:23:09.504Z,92509.14
2019-01-25T01:23:32.311Z,92507.16
2019-01-25T01:23:54.969Z,92504.58
2019-01-25T01:24:17.549Z,92501.70
2019-01-25T01:24:40.354Z,92504.07
2019-01-25T01:25:02.893Z,92510.16
2019-01-25T01:25:25.630Z,92503.70
2019-01-25T01:25:48.224Z,92507.37
2019-01-25T01:26:10.990Z,92503.48
2019-01-25T01:26:34.306Z,92500.11
2019-01-25T01:26:57.430Z,92502.70
2019-01-25T01:27:20.092Z,92502.78
2019-01-25T01:27:42.731Z,92505.67
2019-01-25T01:28:05.309Z,92504.48
2019-01-25T01:28:27.890Z,92501.91
2019-01-25T01:28:50.624Z,92505.27
2019-01-25T01:29:13.665Z,92509.55
2019-01-25T01:29:36.791Z,92505.17
2019-01-25T01:29:59.469Z,92507.66
2019-01-25T01:30:22.191Z,92506.68
2019-01-25T01:30:44.890Z,92506.78
2019-01-25T01:31:07.509Z,92513.20
2019-01-25T01:31:30.190Z,92509.33
2019-01-25T01:31:52.931Z,92504.98
2019-01-25T01:32:16.091Z,92510.55
2019-01-25T01:32:38.750Z,92505.97
2019-01-25T01:33:01.325Z,92508.16
2019-01-25T01:33:23.930Z,92506.56
2019-01-25T01:33:46.627Z,92507.56
2019-01-25T01:34:10.170Z,92509.72
2019-01-25T01:34:32.750Z,92512.31
2019-01-25T01:34:55.490Z,92509.72
2019-01-25T01:35:18.350Z,92511.02
2019-01-25T01:35:41.090Z,92509.03
2019-01-25T01:36:03.613Z,92510.34
2019-01-25T01:36:26.304Z,92511.23
2019-01-25T01:36:49.110Z,92509.45
2019-01-25T01:37:11.870Z,92504.97
2019-01-25T01:37:34.409Z,92512.52
2019-01-25T01:37:57.072Z,92508.34
2019-01-25T01:38:19.812Z,92506.87
2019-01-25T01:38:42.650Z,92509.34
2019-01-25T01:39:05.390Z,92512.23
2019-01-25T01:39:28.702Z,92510.34
2019-01-25T01:39:51.423Z,92509.05
2019-01-25T01:40:21.727Z,92509.73
2019-01-25T01:40:41.510Z,92513.22
2019-01-25T01:41:04.191Z,92512.52
2019-01-25T01:41:28.311Z,92515.22
2019-01-25T01:41:51.298Z,92511.74
2019-01-25T01:42:14.170Z,92509.64
2019-01-25T01:42:36.868Z,92510.66
2019-01-25T01:42:59.550Z,92505.95
2019-01-25T01:43:22.490Z,92507.16
2019-01-25T01:43:45.076Z,92512.62
2019-01-25T01:44:07.730Z,92508.45
2019-01-25T01:44:30.732Z,92513.41
2019-01-25T01:44:53.530Z,92516.32
2019-01-25T01:45:16.250Z,92513.81
2019-01-25T01:45:38.944Z,92512.04
2019-01-25T01:46:01.570Z,92507.45
2019-01-25T01:46:24.330Z,92507.05
2019-01-25T01:46:47.099Z,92506.39
2019-01-25T01:47:09.824Z,92504.39
2019-01-25T01:47:32.550Z,92513.14
2019-01-25T01:47:55.310Z,92511.24
2019-01-25T01:48:17.984Z,92511.53
2019-01-25T01:48:40.671Z,92507.66
2019-01-25T01:49:03.195Z,92511.45
2019-01-25T01:49:26.349Z,92506.17
2019-01-25T01:49:49.090Z,92501.11
2019-01-25T01:50:11.831Z,92499.32
2019-01-25T01:50:34.433Z,92497.52
2019-01-25T01:50:57.130Z,92499.60
2019-01-25T01:51:19.711Z,92493.84
2019-01-25T01:51:42.490Z,92495.91
2019-01-25T01:52:05.184Z,92495.80
2019-01-25T01:52:27.950Z,92497.98
2019-01-25T01:52:50.626Z,92499.20
2019-01-25T01:53:13.344Z,92505.53
2019-01-25T01:53:36.009Z,92504.05
2019-01-25T01:53:58.711Z,92505.95
2019-01-25T01:54:21.531Z,92505.95
2019-01-25T01:54:44.229Z,92504.56
2019-01-25T01:55:06.940Z,92505.28
2019-01-25T01:55:29.750Z,92510.95
2019-01-25T01:55:54.230Z,92502.69
2019-01-25T01:56:16.789Z,92504.47
2019-01-25T01:56:39.532Z,92503.40
2019-01-25T01:57:02.378Z,92503.98
2019-01-25T01:57:24.989Z,92502.41
2019-01-25T01:57:48.174Z,92491.66
2019-01-25T01:58:10.830Z,92499.53
2019-01-25T01:58:33.610Z,92494.55
2019-01-25T01:58:56.349Z,92491.96
2019-01-25T01:59:18.887Z,92495.73
2019-01-25T01:59:41.508Z,92496.92
2019-01-25T02:00:04.152Z,92503.00
2019-01-25T02:00:27.273Z,92493.25
2019-01-25T02:00:50.250Z,92208.22
2019-01-25T02:01:12.911Z,92500.81
2019-01-25T02:01:35.744Z,92501.69
2019-01-25T02:01:58.370Z,92503.60
2019-01-25T02:02:24.171Z,92502.48
2019-01-25T02:02:46.830Z,92500.89
2019-01-25T02:03:09.590Z,92503.59
2019-01-25T02:03:32.210Z,92500.09
2019-01-25T02:03:54.910Z,92496.64
2019-01-25T02:04:19.110Z,92499.70
2019-01-25T02:04:41.890Z,92496.34
2019-01-25T02:05:04.510Z,92496.93
2019-01-25T02:05:27.370Z,92495.25
2019-01-25T02:05:50.144Z,92495.64
2019-01-25T02:06:13.250Z,92497.92
2019-01-25T02:06:36.450Z,92499.41
2019-01-25T02:06:59.190Z,92494.05
2019-01-25T02:07:24.891Z,92493.84
2019-01-25T02:07:47.630Z,92488.19
2019-01-25T02:08:10.304Z,92490.66
2019-01-25T02:08:32.950Z,92492.06
2019-01-25T02:08:55.591Z,92489.58
2019-01-25T02:09:18.370Z,92491.17
2019-01-25T02:09:41.130Z,92486.39
2019-01-25T02:10:03.670Z,92483.73
2019-01-25T02:10:29.617Z,92489.89
2019-01-25T02:10:51.150Z,92487.67
2019-01-25T02:11:13.790Z,92484.00
2019-01-25T02:11:36.452Z,92485.50
2019-01-25T02:11:59.290Z,92485.59
2019-01-25T02:12:22.090Z,92483.63
2019-01-25T02:12:46.250Z,92474.39
2019-01-25T02:13:08.870Z,92474.88
2019-01-25T02:13:31.584Z,92474.67
2019-01-25T02:13:54.270Z,92476.27
2019-01-25T02:14:17.050Z,92477.64
2019-01-25T02:14:39.744Z,92472.97
2019-01-25T02:15:02.320Z,92472.79
2019-01-25T02:15:25.370Z,92479.85
2019-01-25T02:15:48.150Z,92478.06
2019-01-25T02:16:11.053Z,92476.36
2019-01-25T02:16:33.626Z,92478.74
2019-01-25T02:16:56.389Z,92479.45
2019-01-25T02:17:19.491Z,92479.22
2019-01-25T02:17:42.051Z,92479.31
2019-01-25T02:18:04.870Z,92477.23
2019-01-25T02:18:27.650Z,92481.23
2019-01-25T02:18:50.305Z,92478.44
2019-01-25T02:19:13.350Z,92476.63
2019-01-25T02:19:36.150Z,92477.13
2019-01-25T02:19:58.853Z,92479.71
2019-01-25T02:20:21.630Z,92484.19
2019-01-25T02:20:44.390Z,92481.01
2019-01-25T02:21:06.985Z,92475.63
2019-01-25T02:21:29.972Z,92477.33
2019-01-25T02:21:52.652Z,92483.38
2019-01-25T02:22:15.818Z,92477.83
2019-01-25T02:22:39.009Z,92480.61
2019-01-25T02:23:01.790Z,92479.02
2019-01-25T02:23:24.430Z,92476.34
2019-01-25T02:23:47.038Z,92481.81
2019-01-25T02:24:09.771Z,92479.81
2019-01-25T02:24:32.393Z,92476.16
2019-01-25T02:24:55.151Z,92479.03
2019-01-25T02:25:17.824Z,92481.50
2019-01-25T02:25:40.530Z,92481.09
2019-01-25T02:26:03.130Z,92477.44
2019-01-25T02:26:25.898Z,92478.03
2019-01-25T02:26:49.010Z,92484.09
2019-01-25T02:27:13.890Z,92476.33
2019-01-25T02:27:36.732Z,92475.83
2019-01-25T02:27:59.423Z,92479.53
2019-01-25T02:28:22.510Z,92478.02
2019-01-25T02:28:45.169Z,92482.01
2019-01-25T02:29:07.850Z,92478.02
2019-01-25T02:29:30.589Z,92476.23
2019-01-25T02:29:53.290Z,92477.65
2019-01-25T02:30:16.193Z,92476.94
2019-01-25T02:30:38.771Z,92473.97
2019-01-25T02:31:01.490Z,92479.03
2019-01-25T02:31:24.575Z,92478.14
2019-01-25T02:31:47.275Z,92477.44
2019-01-25T02:32:10.011Z,92477.45
2019-01-25T02:32:32.630Z,92474.36
2019-01-25T02:32:55.250Z,92478.23
2019-01-25T02:33:17.993Z,92480.44
2019-01-25T02:33:40.811Z,92476.25
2019-01-25T02:34:03.355Z,92480.23
2019-01-25T02:34:25.933Z,92478.52
2019-01-25T02:34:48.715Z,92484.39
2019-01-25T02:35:11.434Z,92478.93
2019-01-25T02:35:34.154Z,92479.72
2019-01-25T02:35:57.210Z,92476.64
2019-01-25T02:36:19.913Z,92479.81
2019-01-25T02:36:42.634Z,92477.44
2019-01-25T02:37:05.268Z,92479.24
2019-01-25T02:37:28.335Z,92473.39
2019-01-25T02:37:51.105Z,92482.33
2019-01-25T02:38:13.825Z,92480.14
2019-01-25T02:38:36.545Z,92476.15
2019-01-25T02:38:59.265Z,92480.14
2019-01-25T02:39:22.049Z,92475.66
2019-01-25T02:39:44.853Z,92475.98
2019-01-25T02:40:07.712Z,92475.87
2019-01-25T02:40:38.717Z,92473.09
2019-01-25T02:40:54.710Z,92479.63
2019-01-25T02:41:17.310Z,92480.73
2019-01-25T02:41:39.905Z,92480.14
2019-01-25T02:42:10.372Z,92482.11
2019-01-25T02:42:33.411Z,92477.64
2019-01-25T02:42:56.233Z,92484.61
2019-01-25T02:43:18.849Z,92481.33
2019-01-25T02:43:41.610Z,92479.84
2019-01-25T02:44:04.336Z,92481.22
2019-01-25T02:44:27.010Z,92483.21
2019-01-25T02:44:49.665Z,92482.03
2019-01-25T02:45:12.323Z,92479.63
2019-01-25T02:45:34.970Z,92482.81
2019-01-25T02:45:57.790Z,92488.77
2019-01-25T02:46:23.745Z,92484.02
2019-01-25T02:46:46.850Z,92483.62
2019-01-25T02:47:09.730Z,92490.56
2019-01-25T02:47:32.411Z,92491.48
2019-01-25T02:47:55.228Z,92485.20
2019-01-25T02:48:18.013Z,92486.30
2019-01-25T02:48:41.090Z,92485.09
2019-01-25T02:49:03.750Z,92486.61
2019-01-25T02:49:26.784Z,92490.48
2019-01-25T02:49:49.990Z,92490.19
2019-01-25T02:50:12.630Z,92484.70
2019-01-25T02:50:35.874Z,92494.14
2019-01-25T02:50:58.633Z,92490.39
2019-01-25T02:51:21.349Z,92483.41
2019-01-25T02:51:44.439Z,92490.19
2019-01-25T02:52:08.833Z,92487.98
2019-01-25T02:52:33.310Z,92487.79
2019-01-25T02:53:03.744Z,92485.39
2019-01-25T02:53:20.592Z,92484.39
2019-01-25T02:53:43.391Z,92482.33
2019-01-25T02:54:06.096Z,92480.13
2019-01-25T02:54:29.232Z,92486.69
2019-01-25T02:54:51.904Z,92486.48
2019-01-25T02:55:14.670Z,92485.80
2019-01-25T02:55:37.351Z,92486.79
2019-01-25T02:56:00.066Z,92491.76
2019-01-25T02:56:22.750Z,92486.19
2019-01-25T02:56:45.390Z,92482.70
2019-01-25T02:57:08.151Z,92485.40
2019-01-25T02:57:30.992Z,92488.98
2019-01-25T02:57:53.771Z,92488.86
2019-01-25T02:58:16.370Z,92492.06
2019-01-25T02:58:39.430Z,92493.73
2019-01-25T02:59:02.077Z,92487.38
2019-01-25T02:59:24.830Z,92491.17
2019-01-25T02:59:48.534Z,92489.08
2019-01-25T03:00:11.263Z,92487.98
2019-01-25T03:00:34.351Z,92492.64
2019-01-25T03:00:57.073Z,92491.77
2019-01-25T03:01:22.770Z,92494.24
2019-01-25T03:01:45.343Z,92489.08
2019-01-25T03:02:07.911Z,92496.94
2019-01-25T03:02:30.510Z,92492.27
2019-01-25T03:02:53.158Z,92494.16
2019-01-25T03:03:15.878Z,92491.27
2019-01-25T03:03:38.458Z,92493.55
2019-01-25T03:04:01.110Z,92492.06
2019-01-25T03:04:23.813Z,92494.34
2019-01-25T03:04:47.090Z,92490.57
2019-01-25T03:05:09.671Z,92498.02
2019-01-25T03:05:32.544Z,92494.64
2019-01-25T03:05:55.356Z,92489.29
2019-01-25T03:06:17.984Z,92490.66
2019-01-25T03:06:40.752Z,92491.35
2019-01-25T03:07:03.332Z,92496.00
2019-01-25T03:07:25.892Z,92490.47
2019-01-25T03:07:49.137Z,92498.02
2019-01-25T03:08:11.906Z,92492.33
2019-01-25T03:08:34.623Z,92490.46
2019-01-25T03:08:57.353Z,92498.61
2019-01-25T03:09:20.431Z,92490.07
2019-01-25T03:09:43.103Z,92491.56
2019-01-25T03:10:05.811Z,92487.28
2019-01-25T03:10:29.597Z,92489.47
2019-01-25T03:10:55.493Z,92488.30
2019-01-25T03:11:18.251Z,92487.59
2019-01-25T03:11:40.864Z,92490.66
2019-01-25T03:12:03.511Z,92487.00
2019-01-25T03:12:26.090Z,92491.58
2019-01-25T03:12:48.795Z,92490.37
2019-01-25T03:13:11.432Z,92491.18
2019-01-25T03:13:34.170Z,92493.47
2019-01-25T03:13:56.874Z,92489.47
2019-01-25T03:14:19.531Z,92488.89
2019-01-25T03:14:42.190Z,92489.27
2019-01-25T03:15:05.330Z,92485.61
2019-01-25T03:15:27.909Z,92492.66
2019-01-25T03:15:50.401Z,92492.55
2019-01-25T03:16:12.910Z,92489.19
2019-01-25T03:16:35.434Z,92490.08
2019-01-25T03:16:57.993Z,92493.06
2019-01-25T03:17:20.533Z,92491.38
2019-01-25T03:17:43.254Z,92490.27
2019-01-25T03:18:06.126Z,92496.94
2019-01-25T03:18:28.693Z,92491.58
2019-01-25T03:18:51.353Z,92493.06
2019-01-25T03:19:14.076Z,92486.69
2019-01-25T03:19:36.773Z,92498.02
2019-01-25T03:19:59.413Z,92492.44
2019-01-25T03:20:22.099Z,92491.66
2019-01-25T03:20:44.786Z,92490.27
2019-01-25T03:21:07.333Z,92489.38
2019-01-25T03:21:29.913Z,92492.25
2019-01-25T03:21:52.454Z,92491.87
2019-01-25T03:22:15.094Z,92497.52
2019-01-25T03:22:37.681Z,92498.23
2019-01-25T03:23:00.483Z,92493.45
2019-01-25T03:23:23.052Z,92488.27
2019-01-25T03:23:47.259Z,92495.25
2019-01-25T03:24:09.871Z,92494.45
2019-01-25T03:24:32.671Z,92493.66
2019-01-25T03:24:55.345Z,92496.15
2019-01-25T03:25:17.933Z,92499.90
2019-01-25T03:25:40.470Z,92494.44
2019-01-25T03:26:02.991Z,92497.12
2019-01-25T03:26:26.092Z,92496.23
2019-01-25T03:26:51.339Z,92499.31
2019-01-25T03:27:14.232Z,92492.95
2019-01-25T03:27:37.930Z,92499.41
2019-01-25T03:28:01.026Z,92488.78
2019-01-25T03:28:23.573Z,92491.08
2019-01-25T03:28:46.178Z,92493.77
2019-01-25T03:29:09.069Z,92493.56
2019-01-25T03:29:31.870Z,92490.69
2019-01-25T03:29:54.570Z,92492.34
2019-01-25T03:30:17.112Z,92491.85
2019-01-25T03:30:39.746Z,92481.73
2019-01-25T03:31:02.407Z,92491.27
2019-01-25T03:31:25.095Z,92483.40
2019-01-25T03:31:47.713Z,92482.81
2019-01-25T03:32:10.453Z,92487.77
2019-01-25T03:32:33.073Z,92484.60
2019-01-25T03:32:56.169Z,92494.55
2019-01-25T03:33:18.832Z,92493.86
2019-01-25T03:33:41.330Z,92495.15
2019-01-25T03:34:03.835Z,92494.36
2019-01-25T03:34:26.391Z,92494.16
2019-01-25T03:34:49.074Z,92491.27
2019-01-25T03:35:13.373Z,92490.56
2019-01-25T03:35:36.169Z,92486.11
2019-01-25T03:35:58.726Z,92488.98
2019-01-25T03:36:21.478Z,92489.38
2019-01-25T03:36:44.090Z,92487.78
2019-01-25T03:37:06.650Z,92489.69
2019-01-25T03:37:29.330Z,92490.27
2019-01-25T03:37:51.968Z,92493.06
2019-01-25T03:38:14.530Z,92490.98
2019-01-25T03:38:37.272Z,92489.97
2019-01-25T03:38:59.889Z,92491.16
2019-01-25T03:39:22.430Z,92490.96
2019-01-25T03:39:45.026Z,92489.98
2019-01-25T03:40:07.650Z,92489.18
2019-01-25T03:40:30.311Z,92486.49
2019-01-25T03:40:55.159Z,92493.55
2019-01-25T03:41:17.184Z,92488.88
2019-01-25T03:41:39.870Z,92494.94
2019-01-25T03:42:02.384Z,92492.36
2019-01-25T03:42:25.024Z,92490.87
2019-01-25T03:42:47.654Z,92494.24
2019-01-25T03:43:10.210Z,92495.94
2019-01-25T03:43:32.831Z,92493.95
2019-01-25T03:43:55.490Z,92487.20
2019-01-25T03:44:18.010Z,92492.66
2019-01-25T03:44:40.550Z,92492.17
2019-01-25T03:45:03.077Z,92495.34
2019-01-25T03:45:25.646Z,92498.12
2019-01-25T03:45:48.331Z,92495.23
2019-01-25T03:46:10.926Z,92499.91
2019-01-25T03:46:33.577Z,92499.92
2019-01-25T03:46:56.289Z,92503.98
2019-01-25T03:47:18.911Z,92500.59
2019-01-25T03:47:41.471Z,92501.11
2019-01-25T03:48:04.032Z,92504.40
2019-01-25T03:48:26.607Z,92507.66
2019-01-25T03:48:49.149Z,92505.86
2019-01-25T03:49:12.420Z,92501.70
2019-01-25T03:49:38.231Z,92500.81
2019-01-25T03:50:00.891Z,92501.19
2019-01-25T03:50:23.930Z,92498.02
2019-01-25T03:50:46.993Z,92500.70
2019-01-25T03:51:09.812Z,92500.89
2019-01-25T03:51:32.319Z,92497.64
2019-01-25T03:51:55.012Z,92498.03
2019-01-25T03:52:17.665Z,92487.39
2019-01-25T03:52:40.245Z,92498.61
2019-01-25T03:53:02.765Z,92494.14
2019-01-25T03:53:25.390Z,92491.27
2019-01-25T03:53:48.013Z,92497.12
2019-01-25T03:54:10.672Z,92496.81
2019-01-25T03:54:33.225Z,92502.48
2019-01-25T03:54:56.211Z,92495.25
2019-01-25T03:55:18.791Z,92497.33
2019-01-25T03:55:41.850Z,92503.79
2019-01-25T03:56:04.471Z,92501.80
2019-01-25T03:56:27.030Z,92497.12
2019-01-25T03:56:49.710Z,92502.78
2019-01-25T03:57:12.384Z,92504.40
2019-01-25T03:57:35.050Z,92501.19
2019-01-25T03:57:57.819Z,92502.70
2019-01-25T03:58:20.850Z,92501.52
2019-01-25T03:58:43.630Z,92504.47
2019-01-25T03:59:06.277Z,92501.50
2019-01-25T03:59:29.412Z,92500.02
2019-01-25T03:59:52.170Z,92501.40
2019-01-25T04:00:14.784Z,92498.91
2019-01-25T04:00:37.530Z,92495.92
2019-01-25T04:01:00.490Z,92498.31
2019-01-25T04:01:23.263Z,92499.52
2019-01-25T04:01:45.972Z,92496.05
2019-01-25T04:02:09.176Z,92497.34
2019-01-25T04:02:31.836Z,92498.93
2019-01-25T04:02:54.512Z,92498.51
2019-01-25T04:03:17.134Z,92498.93
2019-01-25T04:03:40.270Z,92495.05
2019-01-25T04:04:02.898Z,92502.30
2019-01-25T04:04:25.984Z,92500.52
2019-01-25T04:04:48.631Z,92500.30
2019-01-25T04:05:11.312Z,92503.28
2019-01-25T04:05:34.518Z,92499.72
2019-01-25T04:05:57.184Z,92505.69
2019-01-25T04:06:19.950Z,92507.76
2019-01-25T04:06:42.691Z,92506.78
2019-01-25T04:07:05.344Z,92503.20
2019-01-25T04:07:27.950Z,92512.33
2019-01-25T04:07:50.702Z,92514.70
2019-01-25T04:08:13.370Z,92509.63
2019-01-25T04:08:35.930Z,92512.73
2019-01-25T04:08:59.130Z,92509.45
2019-01-25T04:09:21.770Z,92508.27
2019-01-25T04:09:44.432Z,92508.47
2019-01-25T04:10:07.152Z,92513.44
2019-01-25T04:10:30.251Z,92507.86
2019-01-25T04:10:52.866Z,92510.74
2019-01-25T04:11:16.071Z,92506.47
2019-01-25T04:11:39.264Z,92511.61
2019-01-25T04:12:01.992Z,92510.99
2019-01-25T04:12:24.706Z,92506.75
2019-01-25T04:12:47.770Z,92512.41
2019-01-25T04:13:10.352Z,92510.16
2019-01-25T04:13:32.977Z,92510.32
2019-01-25T04:13:55.590Z,92504.48
2019-01-25T04:14:18.304Z,92507.86
2019-01-25T04:14:41.410Z,92503.09
2019-01-25T04:15:03.949Z,92504.28
2019-01-25T04:15:28.157Z,92505.27
2019-01-25T04:15:50.783Z,92503.80
2019-01-25T04:16:13.504Z,92506.75
2019-01-25T04:16:36.233Z,92501.39
2019-01-25T04:16:59.579Z,92502.29
2019-01-25T04:17:22.871Z,92503.38
2019-01-25T04:17:46.035Z,92500.52
2019-01-25T04:18:08.740Z,92500.12
2019-01-25T04:18:31.424Z,92503.88
2019-01-25T04:18:54.551Z,92506.47
2019-01-25T04:19:17.590Z,92506.66
2019-01-25T04:19:40.312Z,92506.17
2019-01-25T04:20:02.814Z,92507.57
2019-01-25T04:20:25.849Z,92509.66
2019-01-25T04:20:48.701Z,92504.09
2019-01-25T04:21:11.393Z,92506.38
2019-01-25T04:21:34.492Z,92508.95
2019-01-25T04:21:57.187Z,92507.66
2019-01-25T04:22:19.911Z,92509.23
2019-01-25T04:22:42.631Z,92505.08
2019-01-25T04:23:05.310Z,92512.05
2019-01-25T04:23:28.030Z,92503.11
2019-01-25T04:23:51.636Z,92512.64
2019-01-25T04:24:14.232Z,92507.05
2019-01-25T04:24:36.934Z,92507.66
2019-01-25T04:24:59.489Z,92510.02
2019-01-25T04:25:22.395Z,92511.61
2019-01-25T04:25:45.071Z,92506.28
2019-01-25T04:26:07.610Z,92505.38
2019-01-25T04:26:30.290Z,92506.74
2019-01-25T04:26:52.929Z,92502.00
2019-01-25T04:27:15.889Z,92507.66
2019-01-25T04:27:38.992Z,92509.36
2019-01-25T04:28:01.706Z,92509.75
2019-01-25T04:28:24.912Z,92509.75